createdAt,value
2023-01-11T00:00:01.180Z,94.99
2023-01-11T00:05:00.541Z,94.99
2023-01-11T00:10:00.565Z,95.04
2023-01-11T00:15:00.538Z,94.99
2023-01-11T00:20:00.549Z,95.21
2023-01-11T00:25:00.584Z,95.23
2023-01-11T00:30:00.492Z,95.32
2023-01-11T00:35:00.507Z,95.31
2023-01-11T00:40:00.695Z,95.20
2023-01-11T00:45:00.519Z,95.42
2023-01-11T00:50:00.822Z,95.65
2023-01-11T00:55:00.624Z,95.74
2023-01-11T01:00:01.164Z,95.80
2023-01-11T01:05:00.553Z,96.09
2023-01-11T01:10:00.511Z,96.38
2023-01-11T01:15:01.423Z,96.42
2023-01-11T01:20:00.500Z,96.77
2023-01-11T01:25:00.706Z,96.79
2023-01-11T01:30:00.521Z,97.14
2023-01-11T01:35:00.526Z,97.30
2023-01-11T01:40:00.519Z,97.21
2023-01-11T01:45:03.792Z,97.37
2023-01-11T01:50:05.471Z,97.41
2023-01-11T01:55:05.744Z,97.37
2023-01-11T02:00:06.356Z,97.36
2023-01-11T02:05:00.696Z,97.47
2023-01-11T02:10:03.865Z,97.34
2023-01-11T02:15:02.224Z,98.23
2023-01-11T02:20:07.285Z,97.85
2023-01-11T02:25:20.388Z,97.69
2023-01-11T02:30:15.502Z,97.50
2023-01-11T02:35:13.705Z,97.76
2023-01-11T02:40:16.105Z,97.58
2023-01-11T02:45:11.455Z,97.54
2023-01-11T02:50:08.963Z,97.50
2023-01-11T02:55:03.105Z,97.57
2023-01-11T03:00:02.511Z,97.69
2023-01-11T03:05:00.494Z,97.55
2023-01-11T03:10:16.180Z,97.73
2023-01-11T03:15:08.810Z,97.66
2023-01-11T03:20:08.647Z,97.89
2023-01-11T03:25:10.440Z,97.60
2023-01-11T03:30:06.061Z,97.53
2023-01-11T03:35:12.022Z,97.74
2023-01-11T03:40:07.795Z,97.62
2023-01-11T03:45:02.470Z,97.62
2023-01-11T03:50:05.686Z,97.59
2023-01-11T03:55:03.308Z,97.44
2023-01-11T04:00:01.812Z,97.44
2023-01-11T04:05:02.005Z,97.45
2023-01-11T04:10:00.691Z,97.35
2023-01-11T04:15:00.577Z,97.11
2023-01-11T04:20:00.582Z,97.05
2023-01-11T04:25:00.529Z,96.93
2023-01-11T04:30:00.677Z,96.79
2023-01-11T04:35:00.478Z,96.76
2023-01-11T04:40:00.548Z,96.74
2023-01-11T04:45:00.524Z,96.66
2023-01-11T04:50:00.654Z,96.49
2023-01-11T04:55:00.481Z,96.25
2023-01-11T05:00:01.184Z,95.66
2023-01-11T05:05:00.518Z,95.37
2023-01-11T05:10:01.068Z,95.28
2023-01-11T05:15:00.553Z,95.23
2023-01-11T05:20:00.525Z,94.27
2023-01-11T05:25:00.586Z,94.10
2023-01-11T05:30:00.549Z,94.15
2023-01-11T05:35:00.533Z,94.16
2023-01-11T05:40:00.543Z,93.89
2023-01-11T05:45:00.513Z,93.37
2023-01-11T05:50:00.569Z,93.58
2023-01-11T05:55:00.507Z,93.47
2023-01-11T06:00:02.550Z,93.20
2023-01-11T06:05:00.967Z,93.09
2023-01-11T06:10:00.560Z,92.29
2023-01-11T06:15:00.561Z,92.29
2023-01-11T06:20:00.522Z,92.00
2023-01-11T06:25:00.553Z,91.34
2023-01-11T06:30:00.600Z,91.26
2023-01-11T06:35:00.512Z,90.94
2023-01-11T06:40:00.600Z,90.83
2023-01-11T06:45:00.563Z,90.57
2023-01-11T06:50:00.541Z,89.88
2023-01-11T06:55:00.521Z,89.86
2023-01-11T07:00:01.374Z,90.07
2023-01-11T07:05:00.581Z,89.66
2023-01-11T07:10:00.575Z,89.66
2023-01-11T07:15:01.184Z,89.48
2023-01-11T07:20:01.105Z,89.48
2023-01-11T07:25:00.998Z,89.43
2023-01-11T07:30:00.829Z,89.47
2023-01-11T07:35:00.524Z,89.01
2023-01-11T07:40:00.562Z,89.10
2023-01-11T07:45:00.682Z,89.25
2023-01-11T07:50:00.708Z,88.90
2023-01-11T07:55:00.604Z,89.03
2023-01-11T08:00:02.328Z,89.32
2023-01-11T08:05:02.983Z,89.49
2023-01-11T08:10:00.634Z,89.57
2023-01-11T08:15:00.549Z,89.62
2023-01-11T08:20:00.671Z,89.47
2023-01-11T08:25:00.607Z,89.69
2023-01-11T08:30:00.562Z,89.72
2023-01-11T08:35:00.528Z,89.73
2023-01-11T08:40:00.685Z,89.99
2023-01-11T08:45:00.503Z,89.72
2023-01-11T10:18:33.348Z,78.41
2023-01-11T10:20:15.235Z,76.69
2023-01-11T10:25:12.792Z,79.54
2023-01-11T10:30:07.421Z,73.65
2023-01-11T10:35:13.056Z,74.36
2023-01-11T10:40:07.577Z,72.47
2023-01-11T10:45:05.805Z,72.96
2023-01-11T10:50:12.434Z,73.46
2023-01-11T10:55:11.848Z,73.20
2023-01-11T11:00:18.052Z,72.22
2023-01-11T11:05:09.858Z,72.35
2023-01-11T11:10:11.544Z,73.50
2023-01-11T11:15:17.303Z,71.71
2023-01-11T11:20:19.446Z,71.89
2023-01-11T11:25:06.561Z,73.63
2023-01-11T11:30:00.539Z,74.36
2023-01-11T11:35:00.814Z,74.02
2023-01-11T11:40:01.064Z,73.29
2023-01-11T11:45:12.267Z,73.91
2023-01-11T11:50:27.379Z,74.39
2023-01-11T11:55:06.416Z,75.04
2023-01-11T12:00:07.021Z,74.96
2023-01-11T12:05:06.960Z,73.70
2023-01-11T12:10:07.802Z,75.15
2023-01-11T12:15:11.482Z,74.56
2023-01-11T12:20:00.651Z,75.90
2023-01-11T12:25:02.599Z,75.87
2023-01-11T12:30:12.765Z,76.42
2023-01-11T12:35:17.485Z,75.36
2023-01-11T12:40:15.471Z,73.90
2023-01-11T12:45:13.870Z,72.86
2023-01-11T12:50:08.183Z,74.07
2023-01-11T12:55:11.476Z,74.42
2023-01-11T13:00:08.994Z,74.41
2023-01-11T13:05:13.307Z,74.85
2023-01-11T13:10:20.419Z,73.05
2023-01-11T13:15:03.767Z,72.65
2023-01-11T13:20:11.575Z,73.78
2023-01-11T13:25:03.473Z,73.39
2023-01-11T13:30:01.741Z,73.42
2023-01-11T13:35:06.072Z,73.38
2023-01-11T13:40:17.096Z,73.24
2023-01-11T13:45:05.697Z,73.71
2023-01-11T13:50:10.490Z,73.65
2023-01-11T13:55:24.848Z,73.57
2023-01-11T14:00:08.841Z,73.23
2023-01-11T14:05:11.114Z,73.23
2023-01-11T14:10:11.478Z,73.52
2023-01-11T14:15:15.460Z,73.52
2023-01-11T14:20:00.565Z,73.38
2023-01-11T14:25:07.950Z,74.15
2023-01-11T14:30:19.436Z,73.29
2023-01-11T14:35:13.743Z,72.77
2023-01-11T14:40:13.744Z,73.41
2023-01-11T14:45:11.972Z,74.33
2023-01-11T14:50:13.851Z,74.65
2023-01-11T14:55:04.571Z,74.42
2023-01-11T15:00:03.439Z,73.65
2023-01-11T15:05:03.935Z,73.96
2023-01-11T15:10:03.234Z,74.03
2023-01-11T15:15:12.628Z,74.68
2023-01-11T15:20:15.084Z,74.57
2023-01-11T15:25:03.801Z,75.06
2023-01-11T15:30:01.987Z,74.71
2023-01-11T15:35:20.465Z,74.41
2023-01-11T15:40:04.795Z,74.40
2023-01-11T15:45:10.452Z,74.84
2023-01-11T15:50:11.471Z,75.17
2023-01-11T15:55:16.426Z,75.51
2023-01-11T16:00:10.591Z,74.62
2023-01-11T16:05:10.460Z,74.85
2023-01-11T16:10:12.339Z,73.82
2023-01-11T16:15:17.256Z,73.08
2023-01-11T16:20:20.408Z,73.07
2023-01-11T16:25:01.000Z,72.46
2023-01-11T16:30:00.993Z,71.74
2023-01-11T16:35:02.529Z,72.79
2023-01-11T16:40:09.116Z,72.35
2023-01-11T16:45:05.698Z,72.73
2023-01-11T16:50:13.732Z,72.27
2023-01-11T16:55:02.746Z,72.10
2023-01-11T17:00:05.514Z,72.38
2023-01-11T17:05:00.530Z,71.99
2023-01-11T17:10:14.373Z,72.27
2023-01-11T17:15:20.526Z,72.23
2023-01-11T17:20:00.681Z,72.01
2023-01-11T17:25:04.456Z,72.30
2023-01-11T17:30:03.030Z,71.61
2023-01-11T17:35:04.059Z,71.97
2023-01-11T17:40:01.423Z,72.13
2023-01-11T17:45:09.094Z,71.41
2023-01-11T17:50:02.152Z,71.96
2023-01-11T17:55:12.067Z,72.73
2023-01-11T18:00:20.532Z,72.87
2023-01-11T18:05:00.831Z,73.09
2023-01-11T18:10:03.263Z,73.56
2023-01-11T18:15:04.441Z,73.90
2023-01-11T18:20:13.246Z,74.25
2023-01-11T18:25:11.192Z,74.66
2023-01-11T18:30:04.755Z,75.04
2023-01-11T18:35:00.544Z,74.80
2023-01-11T18:40:00.673Z,74.72
2023-01-11T18:45:00.701Z,75.39
2023-01-11T18:50:00.573Z,76.07
2023-01-11T18:55:00.617Z,75.62
2023-01-11T19:00:03.050Z,76.21
2023-01-11T19:05:00.538Z,76.40
2023-01-11T19:10:00.585Z,77.54
2023-01-11T19:15:00.525Z,78.64
2023-01-11T19:20:00.631Z,78.27
2023-01-11T19:25:00.596Z,77.83
2023-01-11T19:30:00.567Z,77.79
2023-01-11T19:35:00.492Z,78.11
2023-01-11T19:40:00.545Z,79.59
2023-01-11T19:45:00.528Z,80.34
2023-01-11T19:50:00.532Z,81.59
2023-01-11T19:55:00.570Z,82.75
2023-01-11T20:00:03.316Z,83.47
2023-01-11T20:05:00.577Z,83.62
2023-01-11T20:10:00.722Z,83.98
2023-01-11T20:15:00.537Z,84.41
2023-01-11T20:20:00.545Z,85.32
2023-01-11T20:25:00.679Z,85.86
2023-01-11T20:30:00.635Z,86.78
2023-01-11T20:35:00.559Z,86.62
2023-01-11T20:40:00.546Z,87.12
2023-01-11T20:45:00.515Z,88.05
2023-01-11T20:50:00.545Z,88.05
2023-01-11T20:55:00.613Z,88.97
2023-01-11T21:00:03.876Z,90.18
2023-01-11T21:05:00.741Z,90.24
2023-01-11T21:10:00.547Z,90.13
2023-01-11T21:15:00.541Z,89.92
2023-01-11T21:20:00.533Z,88.80
2023-01-11T21:25:00.510Z,88.47
2023-01-11T21:30:00.626Z,88.40
2023-01-11T21:35:00.505Z,88.14
2023-01-11T21:40:00.556Z,87.44
2023-01-11T21:45:00.533Z,87.16
2023-01-11T21:50:00.635Z,86.83
2023-01-11T21:55:00.555Z,86.67
2023-01-11T22:00:03.450Z,86.41
2023-01-11T22:05:00.545Z,86.44
2023-01-11T22:10:04.966Z,86.49
2023-01-11T22:15:00.537Z,85.56
2023-01-11T22:20:00.511Z,85.19
2023-01-11T22:25:00.674Z,84.90
2023-01-11T22:30:00.653Z,84.27
2023-01-11T22:35:00.690Z,83.96
2023-01-11T22:40:01.656Z,83.94
2023-01-11T22:45:00.580Z,84.19
2023-01-11T22:50:00.520Z,84.32
2023-01-11T22:55:00.951Z,84.81
2023-01-11T23:00:00.877Z,84.87
2023-01-11T23:05:00.634Z,85.92
2023-01-11T23:10:00.542Z,86.27
2023-01-11T23:15:00.548Z,86.77
2023-01-11T23:20:00.495Z,87.20
2023-01-11T23:25:00.523Z,87.25
2023-01-11T23:30:00.590Z,87.31
2023-01-11T23:35:00.833Z,87.40
2023-01-11T23:40:00.519Z,87.54
2023-01-11T23:45:00.528Z,87.10
2023-01-11T23:50:00.569Z,86.90
2023-01-11T23:55:00.506Z,86.66
